createdAt,value
2023-12-21T00:01:51.956Z,80.55
2023-12-21T00:04:19.796Z,80.20
2023-12-21T00:06:47.919Z,80.28
2023-12-21T00:09:15.633Z,80.58
2023-12-21T00:11:43.251Z,80.38
2023-12-21T00:14:11.566Z,80.57
2023-12-21T00:16:39.398Z,80.69
2023-12-21T00:19:07.297Z,80.46
2023-12-21T00:21:34.943Z,80.57
2023-12-21T00:24:02.587Z,80.76
2023-12-21T00:26:30.217Z,80.63
2023-12-21T00:28:57.807Z,81.04
2023-12-21T00:31:25.740Z,81.19
2023-12-21T00:33:53.437Z,81.11
2023-12-21T00:36:21.350Z,81.01
2023-12-21T00:38:49.063Z,81.33
2023-12-21T00:41:16.650Z,81.25
2023-12-21T00:43:44.263Z,80.91
2023-12-21T00:46:12.101Z,81.17
2023-12-21T00:48:39.876Z,81.30
2023-12-21T00:51:07.920Z,81.17
2023-12-21T00:53:36.013Z,81.32
2023-12-21T00:56:03.903Z,81.27
2023-12-21T00:58:31.625Z,81.35
2023-12-21T01:00:59.576Z,81.29
2023-12-21T01:03:27.284Z,81.58
2023-12-21T01:05:55.024Z,81.18
2023-12-21T01:08:23.716Z,81.19
2023-12-21T01:10:51.335Z,81.67
2023-12-21T01:13:18.951Z,81.88
2023-12-21T01:15:46.571Z,81.93
2023-12-21T01:18:14.346Z,82.27
2023-12-21T01:20:42.105Z,81.83
2023-12-21T01:23:09.752Z,82.21
2023-12-21T01:25:37.559Z,82.07
2023-12-21T01:28:05.605Z,82.11
2023-12-21T01:30:33.236Z,82.31
2023-12-21T01:33:01.408Z,82.06
2023-12-21T01:35:29.241Z,82.00
2023-12-21T01:37:57.096Z,82.02
2023-12-21T01:40:24.796Z,82.24
2023-12-21T01:42:52.501Z,81.94
2023-12-21T01:45:20.136Z,82.17
2023-12-21T01:47:48.640Z,81.90
2023-12-21T01:50:16.485Z,82.19
2023-12-21T01:52:44.421Z,82.33
2023-12-21T01:55:12.156Z,82.26
2023-12-21T01:57:39.991Z,82.21
2023-12-21T02:00:08.283Z,81.99
2023-12-21T02:02:36.149Z,82.29
2023-12-21T02:05:04.363Z,82.14
2023-12-21T02:07:32.393Z,82.50
2023-12-21T02:10:00.126Z,82.41
2023-12-21T02:12:27.839Z,82.21
2023-12-21T02:14:55.624Z,82.15
2023-12-21T02:17:23.265Z,82.16
2023-12-21T02:19:50.898Z,82.08
2023-12-21T02:22:19.014Z,82.17
2023-12-21T02:24:46.754Z,82.15
2023-12-21T02:27:14.371Z,81.82
2023-12-21T02:29:42.353Z,81.81
2023-12-21T02:32:10.194Z,81.90
2023-12-21T02:34:37.904Z,81.75
2023-12-21T02:37:05.960Z,81.94
2023-12-21T02:39:33.986Z,81.85
2023-12-21T02:42:01.600Z,81.74
2023-12-21T02:44:29.642Z,81.94
2023-12-21T02:46:59.670Z,81.70
2023-12-21T02:49:27.505Z,81.66
2023-12-21T02:51:56.435Z,81.48
2023-12-21T02:54:24.264Z,81.59
2023-12-21T02:56:51.852Z,81.71
2023-12-21T02:59:19.977Z,81.51
2023-12-21T03:01:47.908Z,81.21
2023-12-21T03:04:15.639Z,80.96
2023-12-21T03:06:44.724Z,81.13
2023-12-21T03:09:12.691Z,80.75
2023-12-21T03:11:40.320Z,81.18
2023-12-21T03:14:08.408Z,80.77
2023-12-21T03:16:36.249Z,80.77
2023-12-21T03:19:04.037Z,80.74
2023-12-21T03:21:31.769Z,80.82
2023-12-21T03:23:59.433Z,80.97
2023-12-21T03:26:27.071Z,80.36
2023-12-21T03:28:54.737Z,80.25
2023-12-21T03:31:22.753Z,80.38
2023-12-21T03:33:50.696Z,80.68
2023-12-21T03:36:18.611Z,80.65
2023-12-21T03:38:46.488Z,80.51
2023-12-21T03:41:14.193Z,80.56
2023-12-21T03:43:42.019Z,80.35
2023-12-21T03:46:10.947Z,80.30
2023-12-21T03:48:38.684Z,80.40
2023-12-21T03:51:06.340Z,80.45
2023-12-21T03:53:34.146Z,80.72
2023-12-21T03:56:01.805Z,80.46
2023-12-21T03:58:29.493Z,80.76
2023-12-21T04:00:57.196Z,80.65
2023-12-21T04:03:24.965Z,80.60
2023-12-21T04:05:54.818Z,80.49
2023-12-21T04:08:22.835Z,80.43
2023-12-21T04:10:50.475Z,80.77
2023-12-21T04:13:18.290Z,80.47
2023-12-21T04:15:45.944Z,80.24
2023-12-21T04:18:13.622Z,80.62
2023-12-21T04:20:41.327Z,80.45
2023-12-21T04:23:08.994Z,80.63
2023-12-21T04:25:36.734Z,80.72
2023-12-21T04:28:04.654Z,80.47
2023-12-21T04:30:32.748Z,80.56
2023-12-21T04:33:01.001Z,80.63
2023-12-21T04:35:28.787Z,80.38
2023-12-21T04:37:56.385Z,80.23
2023-12-21T04:40:24.066Z,80.48
2023-12-21T04:42:56.465Z,80.49
2023-12-21T04:45:24.613Z,80.65
2023-12-21T04:47:52.409Z,80.41
2023-12-21T04:50:20.611Z,80.53
2023-12-21T04:52:48.838Z,80.81
2023-12-21T04:55:16.746Z,80.37
2023-12-21T04:57:44.526Z,80.64
2023-12-21T05:00:12.834Z,80.37
2023-12-21T05:02:40.693Z,80.41
2023-12-21T05:05:08.352Z,80.69
2023-12-21T05:07:36.005Z,80.62
2023-12-21T05:10:04.291Z,80.72
2023-12-21T05:12:31.936Z,80.87
2023-12-21T05:14:59.593Z,80.91
2023-12-21T05:17:27.789Z,81.31
2023-12-21T05:19:55.529Z,81.53
2023-12-21T05:22:23.588Z,81.42
2023-12-21T05:24:51.222Z,81.41
2023-12-21T05:27:18.824Z,81.85
2023-12-21T05:29:46.506Z,81.54
2023-12-21T05:32:14.183Z,81.98
2023-12-21T05:34:43.490Z,82.20
2023-12-21T05:37:11.911Z,82.08
2023-12-21T05:39:40.418Z,82.34
2023-12-21T05:42:08.105Z,82.77
2023-12-21T05:44:35.899Z,82.72
2023-12-21T05:47:03.674Z,82.70
2023-12-21T05:49:31.364Z,83.11
2023-12-21T05:52:00.818Z,83.18
2023-12-21T05:54:28.785Z,83.58
2023-12-21T05:56:56.431Z,83.43
2023-12-21T05:59:24.033Z,83.49
2023-12-21T06:01:51.750Z,83.92
2023-12-21T06:04:19.685Z,83.87
2023-12-21T06:06:47.907Z,84.23
2023-12-21T06:09:15.676Z,84.00
2023-12-21T06:11:43.288Z,84.07
2023-12-21T06:14:10.877Z,84.18
2023-12-21T06:16:38.937Z,84.49
2023-12-21T06:19:11.407Z,84.25
2023-12-21T06:21:39.804Z,84.33
2023-12-21T06:24:07.840Z,84.55
2023-12-21T06:26:42.096Z,84.72
2023-12-21T06:29:09.966Z,84.53
2023-12-21T06:31:37.933Z,84.85
2023-12-21T06:34:06.003Z,84.99
2023-12-21T06:36:33.702Z,84.89
2023-12-21T06:39:01.277Z,85.41
2023-12-21T06:41:29.685Z,85.24
2023-12-21T06:43:57.297Z,85.32
2023-12-21T06:46:25.231Z,85.44
2023-12-21T06:48:52.964Z,85.13
2023-12-21T06:51:20.681Z,85.46
2023-12-21T06:53:48.435Z,85.49
2023-12-21T06:56:28.903Z,85.45
2023-12-21T06:59:03.693Z,85.54
2023-12-21T07:01:31.915Z,85.71
2023-12-21T07:03:59.838Z,85.61
2023-12-21T07:06:27.535Z,85.55
2023-12-21T07:08:55.417Z,85.63
2023-12-21T07:11:24.231Z,86.13
2023-12-21T07:13:52.098Z,86.55
2023-12-21T07:16:19.992Z,86.37
2023-12-21T07:18:47.728Z,86.71
2023-12-21T07:21:15.370Z,86.89
2023-12-21T07:23:43.056Z,87.29
2023-12-21T07:26:11.940Z,87.55
2023-12-21T07:28:41.675Z,87.46
2023-12-21T07:31:11.136Z,87.50
2023-12-21T07:33:38.916Z,87.67
2023-12-21T07:36:08.620Z,88.02
2023-12-21T07:38:37.441Z,87.97
2023-12-21T07:41:05.041Z,87.77
2023-12-21T07:43:32.724Z,87.82
2023-12-21T07:46:00.619Z,87.46
2023-12-21T07:48:28.350Z,87.59
2023-12-21T07:50:56.187Z,87.76
2023-12-21T07:53:23.984Z,87.85
2023-12-21T07:55:51.655Z,87.61
2023-12-21T07:58:19.404Z,87.58
2023-12-21T08:00:47.960Z,87.52
2023-12-21T08:03:15.623Z,87.93
2023-12-21T08:05:43.660Z,87.92
2023-12-21T08:08:11.403Z,88.06
2023-12-21T08:10:39.028Z,87.95
2023-12-21T08:13:09.372Z,87.85
2023-12-21T08:15:37.097Z,87.34
2023-12-21T08:18:05.940Z,87.26
2023-12-21T08:20:36.319Z,87.21
2023-12-21T08:23:04.704Z,87.33
2023-12-21T08:25:32.897Z,87.24
2023-12-21T08:28:00.853Z,87.23
2023-12-21T08:30:28.900Z,87.22
2023-12-21T08:32:56.781Z,87.06
2023-12-21T08:35:24.459Z,87.22
2023-12-21T08:37:52.122Z,87.26
2023-12-21T08:40:19.826Z,87.01
2023-12-21T08:42:47.831Z,86.93
2023-12-21T08:45:15.867Z,86.83
2023-12-21T08:47:43.733Z,86.88
2023-12-21T08:50:11.774Z,86.71
2023-12-21T08:52:40.671Z,87.04
2023-12-21T08:55:09.690Z,86.85
2023-12-21T08:57:37.978Z,86.73
2023-12-21T09:00:11.755Z,86.39
2023-12-21T09:02:39.966Z,86.22
2023-12-21T09:05:08.040Z,86.25
2023-12-21T09:07:35.936Z,86.26
2023-12-21T09:10:05.132Z,85.91
2023-12-21T09:12:32.857Z,85.50
2023-12-21T09:15:00.774Z,85.40
2023-12-21T09:17:28.576Z,85.54
2023-12-21T09:19:56.366Z,84.85
2023-12-21T09:22:24.460Z,85.04
2023-12-21T09:24:52.208Z,85.04
2023-12-21T09:27:19.878Z,84.79
2023-12-21T09:29:47.996Z,84.60
2023-12-21T09:32:15.753Z,84.26
2023-12-21T09:34:46.658Z,83.97
2023-12-21T09:37:15.604Z,83.52
2023-12-21T09:39:44.540Z,83.79
2023-12-21T09:42:14.995Z,84.08
2023-12-21T09:44:48.259Z,83.76
2023-12-21T09:47:17.402Z,83.52
2023-12-21T09:49:45.746Z,83.57
2023-12-21T09:52:13.780Z,83.89
2023-12-21T09:54:41.692Z,83.42
2023-12-21T09:57:09.578Z,83.25
2023-12-21T09:59:37.803Z,82.66
2023-12-21T10:02:13.491Z,82.65
2023-12-21T10:04:44.769Z,82.53
2023-12-21T10:07:12.645Z,82.61
2023-12-21T10:09:40.278Z,82.33
2023-12-21T10:12:08.566Z,81.99
2023-12-21T10:14:36.355Z,82.36
2023-12-21T10:17:06.649Z,82.63
2023-12-21T10:19:34.480Z,82.80
2023-12-21T10:22:02.561Z,83.16
2023-12-21T10:24:32.057Z,82.92
2023-12-21T10:26:59.731Z,82.63
2023-12-21T10:29:27.517Z,82.56
2023-12-21T10:31:55.802Z,82.67
2023-12-21T10:34:23.928Z,82.44
2023-12-21T10:36:51.798Z,82.29
2023-12-21T10:39:19.804Z,82.58
2023-12-21T10:41:47.773Z,82.34
2023-12-21T10:44:16.798Z,82.51
2023-12-21T10:46:45.255Z,82.33
2023-12-21T10:49:13.833Z,82.47
2023-12-21T10:51:45.215Z,82.04
2023-12-21T10:54:16.194Z,82.05
2023-12-21T10:56:43.877Z,81.88
2023-12-21T10:59:12.413Z,82.23
2023-12-21T11:01:40.442Z,81.94
2023-12-21T11:04:09.490Z,82.08
2023-12-21T11:06:37.145Z,81.71
2023-12-21T11:09:07.962Z,82.04
2023-12-21T11:11:36.064Z,81.79
2023-12-21T11:14:03.696Z,82.46
2023-12-21T11:16:42.710Z,82.34
2023-12-21T11:19:11.668Z,82.14
2023-12-21T11:21:39.515Z,82.27
2023-12-21T11:24:07.176Z,82.71
2023-12-21T11:26:34.904Z,82.94
2023-12-21T11:29:06.408Z,83.03
2023-12-21T11:31:41.256Z,83.08
2023-12-21T11:34:23.328Z,83.37
2023-12-21T11:36:51.574Z,83.27
2023-12-21T11:39:20.251Z,83.29
2023-12-21T11:42:01.063Z,83.59
2023-12-21T11:44:36.931Z,83.63
2023-12-21T11:47:08.392Z,83.02
2023-12-21T11:49:36.354Z,83.21
2023-12-21T11:52:04.406Z,83.45
2023-12-21T11:54:32.113Z,83.53
2023-12-21T11:57:12.711Z,83.79
2023-12-21T11:59:40.735Z,83.75
2023-12-21T12:02:08.992Z,84.03
2023-12-21T12:04:36.852Z,84.08
2023-12-21T12:07:05.122Z,83.88
2023-12-21T12:09:32.846Z,84.20
2023-12-21T12:12:01.116Z,84.35
2023-12-21T12:14:28.810Z,84.46
2023-12-21T12:16:57.000Z,84.28
2023-12-21T12:19:30.934Z,84.51
2023-12-21T12:21:58.771Z,84.84
2023-12-21T12:24:26.379Z,84.88
2023-12-21T12:26:54.038Z,84.98
2023-12-21T12:29:21.757Z,85.14
2023-12-21T12:31:49.876Z,84.95
2023-12-21T12:34:17.866Z,85.26
2023-12-21T12:36:45.578Z,85.06
2023-12-21T12:39:13.167Z,85.35
2023-12-21T12:41:41.358Z,84.88
2023-12-21T12:44:10.142Z,85.04
2023-12-21T12:46:38.002Z,85.16
2023-12-21T12:49:06.078Z,85.26
2023-12-21T12:51:33.835Z,85.67
2023-12-21T12:54:01.519Z,85.31
2023-12-21T12:56:29.893Z,85.39
2023-12-21T12:58:59.612Z,85.74
2023-12-21T13:01:29.615Z,85.68
2023-12-21T13:03:59.197Z,85.59
2023-12-21T13:06:27.196Z,85.60
2023-12-21T13:08:54.925Z,86.01
2023-12-21T13:11:23.601Z,86.02
2023-12-21T13:13:51.349Z,86.00
2023-12-21T13:16:20.196Z,85.95
2023-12-21T13:18:48.705Z,85.94
2023-12-21T13:21:16.935Z,86.32
2023-12-21T13:23:44.762Z,86.41
2023-12-21T13:26:14.118Z,86.32
2023-12-21T13:28:45.050Z,86.04
2023-12-21T13:31:12.911Z,85.84
2023-12-21T13:33:40.912Z,86.41
2023-12-21T13:36:08.910Z,86.38
2023-12-21T13:38:38.882Z,86.75
2023-12-21T13:41:10.176Z,86.96
2023-12-21T13:43:38.313Z,86.64
2023-12-21T13:46:06.158Z,86.86
2023-12-21T13:48:34.109Z,87.12
2023-12-21T13:51:02.069Z,87.06
2023-12-21T13:53:29.876Z,86.90
2023-12-21T13:55:57.772Z,87.46
2023-12-21T13:58:26.053Z,87.31
2023-12-21T14:00:54.429Z,87.64
2023-12-21T14:03:22.187Z,87.55
2023-12-21T14:05:50.040Z,87.65
2023-12-21T14:08:19.106Z,87.58
2023-12-21T14:10:47.719Z,87.97
2023-12-21T14:13:15.709Z,87.92
2023-12-21T14:15:43.298Z,87.88
2023-12-21T14:18:11.032Z,88.15
2023-12-21T14:20:38.764Z,88.46
2023-12-21T14:23:06.457Z,88.48
2023-12-21T14:25:34.671Z,88.34
2023-12-21T14:28:02.353Z,88.73
2023-12-21T14:30:29.935Z,88.64
2023-12-21T14:32:57.767Z,88.30
2023-12-21T14:35:25.746Z,88.56
2023-12-21T14:37:54.164Z,88.39
2023-12-21T14:40:22.029Z,88.32
2023-12-21T14:42:49.757Z,88.39
2023-12-21T14:45:17.699Z,88.37
2023-12-21T14:47:45.697Z,88.39
2023-12-21T14:50:14.147Z,88.27
2023-12-21T14:52:45.567Z,88.48
2023-12-21T14:55:13.559Z,88.14
2023-12-21T14:57:41.504Z,88.45
2023-12-21T15:00:12.521Z,88.49
2023-12-21T15:02:40.345Z,88.78
2023-12-21T15:05:09.207Z,88.41
2023-12-21T15:07:37.443Z,88.55
2023-12-21T15:10:06.638Z,88.57
2023-12-21T15:12:36.566Z,88.46
2023-12-21T15:15:04.734Z,88.29
2023-12-21T15:17:32.526Z,88.43
2023-12-21T15:20:00.512Z,88.45
2023-12-21T15:22:28.343Z,88.46
2023-12-21T15:24:56.577Z,88.69
2023-12-21T15:27:24.556Z,88.57
2023-12-21T15:29:52.141Z,88.80
2023-12-21T15:32:19.835Z,88.91
2023-12-21T15:34:47.746Z,88.68
2023-12-21T15:37:15.424Z,88.73
2023-12-21T15:39:45.325Z,88.70
2023-12-21T15:42:13.190Z,88.78
2023-12-21T15:44:40.797Z,88.86
2023-12-21T15:47:08.734Z,88.78
2023-12-21T15:49:36.433Z,88.90
2023-12-21T15:52:06.983Z,88.51
2023-12-21T15:54:36.227Z,88.52
2023-12-21T15:57:04.330Z,88.59
2023-12-21T15:59:35.793Z,88.53
2023-12-21T16:02:04.207Z,88.60
2023-12-21T16:04:36.600Z,88.50
2023-12-21T16:07:04.706Z,88.26
2023-12-21T16:09:32.344Z,88.65
2023-12-21T16:12:00.089Z,88.63
2023-12-21T16:14:27.753Z,88.39
2023-12-21T16:16:55.491Z,88.25
2023-12-21T16:19:23.332Z,88.31
2023-12-21T16:21:51.186Z,88.55
2023-12-21T16:24:18.824Z,88.55
2023-12-21T16:26:46.568Z,88.37
2023-12-21T16:29:14.601Z,88.46
2023-12-21T16:31:44.552Z,88.67
2023-12-21T16:34:12.310Z,88.30
2023-12-21T16:36:40.130Z,88.12
2023-12-21T16:39:08.604Z,88.31
2023-12-21T16:41:36.338Z,88.29
2023-12-21T16:44:04.171Z,88.44
2023-12-21T16:46:31.959Z,88.27
2023-12-21T16:48:59.635Z,88.14
2023-12-21T16:51:27.467Z,88.00
2023-12-21T16:53:55.087Z,87.75
2023-12-21T16:56:23.086Z,88.03
2023-12-21T16:58:51.982Z,88.07
2023-12-21T17:01:19.813Z,87.88
2023-12-21T17:03:51.207Z,87.92
2023-12-21T17:06:20.700Z,87.56
2023-12-21T17:08:48.401Z,87.61
2023-12-21T17:11:16.020Z,87.85
2023-12-21T17:13:43.821Z,88.05
2023-12-21T17:16:11.618Z,87.98
2023-12-21T17:18:39.450Z,88.15
2023-12-21T17:21:07.189Z,88.39
2023-12-21T17:23:34.785Z,88.38
2023-12-21T17:26:02.602Z,88.08
2023-12-21T17:28:31.020Z,88.55
2023-12-21T17:30:58.671Z,88.14
2023-12-21T17:33:27.637Z,88.15
2023-12-21T17:35:56.886Z,88.42
2023-12-21T17:38:24.579Z,88.61
2023-12-21T17:40:54.964Z,88.76
2023-12-21T17:43:26.801Z,88.56
2023-12-21T17:45:56.593Z,88.77
2023-12-21T17:48:24.417Z,88.77
2023-12-21T17:50:52.521Z,88.77
2023-12-21T17:53:20.289Z,88.76
2023-12-21T17:55:47.982Z,88.65
2023-12-21T17:58:18.775Z,89.02
2023-12-21T18:00:46.788Z,88.68
2023-12-21T18:03:14.882Z,89.00
2023-12-21T18:05:42.800Z,89.03
2023-12-21T18:08:12.721Z,89.13
2023-12-21T18:10:40.484Z,88.99
2023-12-21T18:13:08.400Z,88.87
2023-12-21T18:15:36.360Z,89.36
2023-12-21T18:18:04.564Z,89.15
2023-12-21T18:20:32.365Z,89.05
2023-12-21T18:23:00.168Z,88.98
2023-12-21T18:25:28.208Z,89.09
2023-12-21T18:27:56.108Z,88.96
2023-12-21T18:30:23.981Z,88.61
2023-12-21T18:32:51.626Z,88.76
2023-12-21T18:35:19.397Z,89.01
2023-12-21T18:37:47.345Z,88.59
2023-12-21T18:40:15.284Z,88.39
2023-12-21T18:42:43.377Z,88.23
2023-12-21T18:45:11.311Z,88.21
2023-12-21T18:47:38.914Z,88.22
2023-12-21T18:50:07.331Z,87.89
2023-12-21T18:52:35.105Z,87.96
2023-12-21T18:55:02.805Z,88.02
2023-12-21T18:57:32.412Z,87.69
2023-12-21T19:00:00.487Z,87.58
2023-12-21T19:02:28.552Z,87.86
2023-12-21T19:04:56.456Z,87.88
2023-12-21T19:07:24.286Z,87.66
2023-12-21T19:09:51.895Z,87.45
2023-12-21T19:12:21.920Z,87.53
2023-12-21T19:14:49.698Z,87.74
2023-12-21T19:17:17.458Z,87.82
2023-12-21T19:19:45.382Z,87.78
2023-12-21T19:22:13.039Z,87.99
2023-12-21T19:24:40.720Z,88.14
2023-12-21T19:27:08.660Z,88.17
2023-12-21T19:29:36.756Z,88.54
2023-12-21T19:32:05.361Z,88.68
2023-12-21T19:34:33.138Z,88.78
2023-12-21T19:37:01.204Z,88.62
2023-12-21T19:39:28.788Z,88.97
2023-12-21T19:41:56.956Z,88.90
2023-12-21T19:44:24.557Z,89.04
2023-12-21T19:46:52.147Z,89.12
2023-12-21T19:49:20.538Z,89.47
2023-12-21T19:51:48.315Z,89.06
2023-12-21T19:54:15.921Z,89.35
2023-12-21T19:56:46.340Z,89.25
2023-12-21T19:59:19.962Z,89.40
2023-12-21T20:01:49.347Z,89.45
2023-12-21T20:04:18.610Z,89.77
2023-12-21T20:06:46.702Z,89.63
2023-12-21T20:09:17.358Z,89.76
2023-12-21T20:11:45.206Z,90.03
2023-12-21T20:14:12.939Z,90.10
2023-12-21T20:16:40.777Z,90.06
2023-12-21T20:19:09.036Z,88.93
2023-12-21T20:21:36.787Z,87.91
2023-12-21T20:24:04.958Z,87.86
2023-12-21T20:26:32.864Z,87.94
2023-12-21T20:29:00.655Z,87.98
2023-12-21T20:31:29.507Z,88.08
2023-12-21T20:33:57.525Z,88.01
2023-12-21T20:36:25.246Z,87.75
2023-12-21T20:38:53.068Z,87.48
2023-12-21T20:41:21.197Z,87.67
2023-12-21T20:43:49.703Z,87.38
2023-12-21T20:46:17.835Z,87.16
2023-12-21T20:48:45.779Z,87.51
2023-12-21T20:51:13.504Z,87.84
2023-12-21T20:53:41.152Z,88.26
2023-12-21T20:56:09.101Z,88.42
2023-12-21T20:58:36.737Z,88.83
2023-12-21T21:01:07.121Z,88.60
2023-12-21T21:03:38.476Z,88.69
2023-12-21T21:06:06.746Z,88.70
2023-12-21T21:08:34.333Z,88.60
2023-12-21T21:11:02.113Z,88.71
2023-12-21T21:13:29.945Z,88.70
2023-12-21T21:15:57.577Z,88.76
2023-12-21T21:18:25.869Z,88.48
2023-12-21T21:20:53.610Z,88.39
2023-12-21T21:23:21.292Z,88.28
2023-12-21T21:25:49.239Z,88.10
2023-12-21T21:28:17.108Z,87.45
2023-12-21T21:30:56.816Z,87.41
2023-12-21T21:33:28.829Z,87.01
2023-12-21T21:35:56.742Z,86.67
2023-12-21T21:38:24.352Z,86.51
2023-12-21T21:40:53.809Z,86.37
2023-12-21T21:43:21.767Z,85.95
2023-12-21T21:45:49.405Z,85.24
2023-12-21T21:48:17.665Z,85.01
2023-12-21T21:50:45.885Z,84.85
2023-12-21T21:53:13.728Z,84.82
2023-12-21T21:55:41.821Z,85.12
2023-12-21T21:58:09.445Z,84.69
2023-12-21T22:00:37.123Z,84.79
2023-12-21T22:03:07.251Z,83.99
2023-12-21T22:05:35.327Z,84.46
2023-12-21T22:08:03.211Z,83.97
2023-12-21T22:10:31.388Z,84.17
2023-12-21T22:12:58.994Z,82.91
2023-12-21T22:15:26.588Z,83.16
2023-12-21T22:17:54.246Z,82.62
2023-12-21T22:20:21.872Z,82.64
2023-12-21T22:22:49.600Z,82.45
2023-12-21T22:25:17.454Z,81.99
2023-12-21T22:27:45.130Z,82.09
2023-12-21T22:30:13.170Z,81.95
2023-12-21T22:32:40.918Z,81.86
2023-12-21T22:35:10.370Z,81.86
2023-12-21T22:37:38.477Z,81.76
2023-12-21T22:40:08.008Z,80.56
2023-12-21T22:42:35.713Z,80.97
2023-12-21T22:45:03.952Z,81.00
2023-12-21T22:47:31.899Z,80.69
2023-12-21T22:50:00.851Z,80.57
2023-12-21T22:52:28.781Z,80.32
2023-12-21T22:54:56.388Z,80.59
2023-12-21T22:57:24.009Z,80.41
2023-12-21T22:59:51.582Z,80.30
2023-12-21T23:02:19.984Z,80.20
2023-12-21T23:04:47.698Z,80.03
2023-12-21T23:07:15.566Z,79.84
2023-12-21T23:09:43.375Z,79.94
2023-12-21T23:12:10.968Z,79.81
2023-12-21T23:14:38.592Z,79.50
2023-12-21T23:17:06.222Z,79.62
2023-12-21T23:19:34.062Z,79.67
2023-12-21T23:22:01.846Z,79.34
2023-12-21T23:24:29.687Z,79.21
2023-12-21T23:26:57.428Z,78.66
2023-12-21T23:29:25.779Z,79.17
2023-12-21T23:31:53.543Z,78.79
2023-12-21T23:34:21.502Z,78.95
2023-12-21T23:36:49.124Z,78.96
2023-12-21T23:39:16.785Z,78.94
2023-12-21T23:41:44.621Z,79.24
2023-12-21T23:44:12.244Z,79.44
2023-12-21T23:46:39.862Z,79.58
2023-12-21T23:49:07.926Z,79.44
2023-12-21T23:51:38.518Z,79.19
2023-12-21T23:54:06.137Z,78.51
2023-12-21T23:56:33.742Z,77.53
2023-12-21T23:59:01.379Z,76.67
